createdAt,value
2023-10-10T00:02:06.017Z,12.93
2023-10-10T00:04:36.488Z,12.89
2023-10-10T00:07:08.616Z,12.90
2023-10-10T00:09:36.956Z,12.86
2023-10-10T00:12:06.130Z,12.83
2023-10-10T00:14:34.957Z,12.82
2023-10-10T00:17:08.856Z,12.79
2023-10-10T00:19:45.073Z,12.78
2023-10-10T00:22:14.090Z,12.77
2023-10-10T00:24:43.138Z,12.85
2023-10-10T00:27:15.093Z,12.88
2023-10-10T00:29:44.717Z,12.88
2023-10-10T00:32:18.789Z,12.82
2023-10-10T00:34:49.179Z,12.78
2023-10-10T00:37:22.242Z,12.77
2023-10-10T00:39:54.498Z,12.77
2023-10-10T00:42:37.810Z,12.74
2023-10-10T00:45:11.202Z,12.68
2023-10-10T00:47:44.537Z,12.63
2023-10-10T00:50:17.430Z,12.59
2023-10-10T00:52:47.434Z,12.55
2023-10-10T00:55:16.626Z,12.53
2023-10-10T00:57:45.001Z,12.55
2023-10-10T01:00:16.475Z,12.58
2023-10-10T01:02:46.803Z,12.57
2023-10-10T01:05:15.414Z,12.76
2023-10-10T01:07:48.297Z,12.78
2023-10-10T01:10:18.780Z,12.84
2023-10-10T01:12:47.901Z,12.86
2023-10-10T01:15:18.004Z,12.78
2023-10-10T01:17:47.882Z,12.69
2023-10-10T01:20:27.069Z,12.64
2023-10-10T01:22:57.936Z,12.63
2023-10-10T01:25:43.072Z,12.55
2023-10-10T01:28:24.357Z,12.55
2023-10-10T01:31:05.115Z,12.53
2023-10-10T01:33:41.848Z,12.45
2023-10-10T01:36:14.568Z,12.39
2023-10-10T01:39:01.996Z,12.32
2023-10-10T01:41:39.970Z,12.25
2023-10-10T01:44:19.728Z,12.18
2023-10-10T01:46:48.618Z,12.13
2023-10-10T01:49:21.882Z,12.08
2023-10-10T01:52:00.010Z,11.99
2023-10-10T01:54:41.892Z,11.93
2023-10-10T01:57:14.344Z,11.91
2023-10-10T01:59:42.925Z,11.93
2023-10-10T02:02:16.678Z,11.89
2023-10-10T02:04:46.614Z,11.87
2023-10-10T02:07:23.865Z,11.88
2023-10-10T02:10:05.055Z,11.99
2023-10-10T02:12:35.827Z,12.09
2023-10-10T02:15:06.627Z,12.08
2023-10-10T02:17:40.851Z,12.05
2023-10-10T02:20:34.505Z,12.09
2023-10-10T02:23:11.289Z,12.05
2023-10-10T02:25:42.253Z,12.10
2023-10-10T02:28:21.813Z,12.01
2023-10-10T02:30:54.265Z,11.98
2023-10-10T02:33:31.292Z,11.96
2023-10-10T02:36:00.227Z,11.91
2023-10-10T02:38:34.645Z,11.92
2023-10-10T02:41:28.397Z,11.88
2023-10-10T02:44:05.861Z,11.83
2023-10-10T02:46:38.878Z,11.77
2023-10-10T02:49:31.004Z,11.71
2023-10-10T02:52:07.576Z,11.66
2023-10-10T02:54:38.292Z,11.58
2023-10-10T02:57:23.849Z,11.58
2023-10-10T02:59:53.875Z,11.53
2023-10-10T03:02:29.932Z,11.49
2023-10-10T03:05:16.658Z,11.46
2023-10-10T03:07:53.142Z,11.42
2023-10-10T03:10:36.797Z,11.38
2023-10-10T03:13:14.746Z,11.35
2023-10-10T03:15:52.641Z,11.32
2023-10-10T03:18:29.716Z,11.31
2023-10-10T03:21:13.872Z,11.28
2023-10-10T03:23:56.704Z,11.24
2023-10-10T03:26:51.589Z,11.19
2023-10-10T03:29:28.500Z,11.12
2023-10-10T03:32:20.929Z,11.06
2023-10-10T03:34:57.419Z,11.02
2023-10-10T03:37:41.755Z,10.97
2023-10-10T03:40:28.139Z,10.94
2023-10-10T03:43:14.613Z,10.91
2023-10-10T03:46:02.231Z,10.90
2023-10-10T03:48:48.537Z,10.87
2023-10-10T03:51:46.076Z,10.85
2023-10-10T03:54:40.501Z,10.87
2023-10-10T03:57:26.111Z,10.85
2023-10-10T04:00:12.022Z,10.83
2023-10-10T04:03:02.416Z,10.85
2023-10-10T04:05:48.271Z,10.82
2023-10-10T04:08:36.358Z,10.79
2023-10-10T04:11:22.220Z,10.77
2023-10-10T04:14:08.114Z,10.72
2023-10-10T04:16:54.055Z,10.70
2023-10-10T04:19:41.187Z,10.69
2023-10-10T04:22:27.769Z,10.74
2023-10-10T04:25:13.674Z,10.78
2023-10-10T04:27:59.772Z,10.81
2023-10-10T04:30:45.921Z,10.78
2023-10-10T04:33:31.884Z,10.77
2023-10-10T04:36:19.202Z,10.74
2023-10-10T04:39:05.241Z,10.71
2023-10-10T04:41:50.971Z,10.71
2023-10-10T04:44:36.940Z,10.66
2023-10-10T04:47:23.202Z,10.70
2023-10-10T04:50:09.186Z,10.67
2023-10-10T04:52:56.495Z,10.67
2023-10-10T04:55:42.436Z,10.68
2023-10-10T04:58:28.072Z,10.68
2023-10-10T05:01:14.307Z,10.66
2023-10-10T05:04:03.451Z,10.65
2023-10-10T05:06:49.070Z,10.64
2023-10-10T05:09:36.359Z,10.62
2023-10-10T05:12:22.736Z,10.61
2023-10-10T05:15:08.590Z,10.57
2023-10-10T05:17:54.470Z,10.51
2023-10-10T05:20:40.454Z,10.51
2023-10-10T05:23:31.844Z,10.51
2023-10-10T05:26:03.622Z,10.49
2023-10-10T05:28:33.803Z,10.48
2023-10-10T05:31:04.510Z,10.46
2023-10-10T05:33:37.554Z,10.45
2023-10-10T05:36:08.725Z,10.49
2023-10-10T05:38:40.946Z,10.48
2023-10-10T05:41:12.440Z,10.48
2023-10-10T05:43:40.886Z,10.46
2023-10-10T05:46:10.561Z,10.46
2023-10-10T05:48:39.275Z,10.47
2023-10-10T05:51:10.218Z,10.48
2023-10-10T05:53:38.860Z,10.54
2023-10-10T05:56:15.037Z,10.58
2023-10-10T05:58:46.037Z,10.62
2023-10-10T06:01:15.832Z,10.70
2023-10-10T06:03:46.195Z,10.79
2023-10-10T06:06:17.074Z,10.92
2023-10-10T06:09:20.008Z,11.01
2023-10-10T06:11:49.286Z,11.15
2023-10-10T06:14:21.151Z,11.24
2023-10-10T06:16:49.626Z,11.37
2023-10-10T06:19:22.474Z,11.59
2023-10-10T06:21:53.089Z,11.71
2023-10-10T06:24:21.273Z,11.82
2023-10-10T06:26:50.698Z,11.90
2023-10-10T06:29:20.566Z,11.88
2023-10-10T06:31:50.380Z,11.93
2023-10-10T06:34:23.809Z,11.99
2023-10-10T06:36:53.845Z,12.16
2023-10-10T06:39:22.833Z,12.23
2023-10-10T06:41:55.974Z,12.38
2023-10-10T06:44:36.740Z,12.55
2023-10-10T06:47:13.038Z,12.64
2023-10-10T06:50:00.149Z,12.70
2023-10-10T06:52:30.300Z,12.83
2023-10-10T06:54:59.116Z,12.91
2023-10-10T06:57:45.401Z,12.97
2023-10-10T07:00:28.737Z,13.06
2023-10-10T07:02:57.551Z,13.16
2023-10-10T07:05:29.381Z,13.26
2023-10-10T07:08:01.020Z,13.33
2023-10-10T07:10:35.559Z,13.47
2023-10-10T07:13:11.756Z,13.60
2023-10-10T07:15:43.058Z,13.79
2023-10-10T07:18:16.019Z,14.08
2023-10-10T07:21:04.499Z,14.45
2023-10-10T07:23:41.027Z,14.76
2023-10-10T07:26:20.769Z,14.81
2023-10-10T07:28:57.859Z,15.16
2023-10-10T07:31:35.606Z,15.27
2023-10-10T07:34:16.478Z,15.50
2023-10-10T07:36:46.015Z,15.78
2023-10-10T07:39:31.934Z,15.67
2023-10-10T07:42:00.452Z,15.91
2023-10-10T07:44:31.508Z,15.97
2023-10-10T07:47:21.261Z,16.02
2023-10-10T07:49:52.485Z,16.35
2023-10-10T07:52:22.498Z,16.54
2023-10-10T07:54:55.120Z,16.76
2023-10-10T07:57:29.976Z,16.80
2023-10-10T07:59:59.543Z,16.80
2023-10-10T08:02:34.097Z,16.71
2023-10-10T08:05:10.694Z,16.80
2023-10-10T08:07:39.800Z,16.71
2023-10-10T08:10:15.829Z,16.70
2023-10-10T08:12:45.357Z,16.79
2023-10-10T08:15:21.918Z,16.89
2023-10-10T08:17:55.565Z,16.98
2023-10-10T08:20:46.063Z,17.20
2023-10-10T08:23:14.347Z,17.12
2023-10-10T08:25:43.637Z,17.06
2023-10-10T08:28:12.216Z,17.19
2023-10-10T08:30:40.996Z,17.29
2023-10-10T08:33:11.022Z,17.44
2023-10-10T08:35:40.604Z,17.58
2023-10-10T08:38:09.597Z,17.60
2023-10-10T08:40:42.261Z,17.59
2023-10-10T08:43:11.176Z,17.68
2023-10-10T08:45:45.560Z,17.89
2023-10-10T08:48:18.003Z,18.08
2023-10-10T08:50:47.120Z,17.80
2023-10-10T08:53:16.268Z,18.04
2023-10-10T08:55:49.993Z,17.75
2023-10-10T08:58:19.921Z,17.89
2023-10-10T09:00:50.199Z,17.94
2023-10-10T09:03:21.078Z,18.17
2023-10-10T09:05:49.853Z,18.32
2023-10-10T09:08:27.808Z,18.20
2023-10-10T09:10:59.921Z,18.01
2023-10-10T09:13:28.791Z,18.09
2023-10-10T09:15:58.400Z,18.22
2023-10-10T09:18:29.117Z,18.23
2023-10-10T09:21:19.946Z,18.54
2023-10-10T09:24:09.099Z,18.68
2023-10-10T09:26:38.788Z,18.78
2023-10-10T09:29:19.619Z,18.93
2023-10-10T09:31:49.694Z,18.95
2023-10-10T09:34:25.553Z,18.98
2023-10-10T09:37:01.318Z,19.01
2023-10-10T09:39:38.498Z,19.16
2023-10-10T09:42:27.640Z,19.11
2023-10-10T09:45:15.296Z,19.38
2023-10-10T09:47:57.145Z,19.44
2023-10-10T09:50:31.737Z,19.32
2023-10-10T09:53:01.052Z,19.33
2023-10-10T09:55:40.672Z,19.32
2023-10-10T09:58:25.986Z,19.26
2023-10-10T10:00:56.388Z,19.56
2023-10-10T10:03:51.121Z,19.77
2023-10-10T10:07:06.176Z,19.61
2023-10-10T10:09:55.816Z,19.91
2023-10-10T10:12:42.999Z,19.90
2023-10-10T10:15:25.519Z,19.97
2023-10-10T10:18:13.194Z,20.13
2023-10-10T10:21:04.616Z,20.34
2023-10-10T10:23:39.671Z,20.36
2023-10-10T10:26:11.865Z,20.44
2023-10-10T10:28:44.212Z,20.61
2023-10-10T10:31:18.152Z,20.71
2023-10-10T10:34:07.217Z,20.98
2023-10-10T10:36:43.331Z,20.87
2023-10-10T10:39:26.582Z,21.14
2023-10-10T10:41:58.882Z,21.27
2023-10-10T10:44:45.695Z,21.76
2023-10-10T10:47:55.135Z,21.80
2023-10-10T10:50:41.981Z,21.68
2023-10-10T10:53:32.245Z,21.50
2023-10-10T10:56:22.310Z,21.50
2023-10-10T10:59:13.284Z,21.84
2023-10-10T11:01:53.719Z,22.27
2023-10-10T11:04:45.211Z,22.18
2023-10-10T11:07:27.871Z,22.33
2023-10-10T11:10:08.215Z,22.69
2023-10-10T11:12:41.794Z,22.89
2023-10-10T11:15:12.769Z,23.13
2023-10-10T11:17:43.526Z,23.18
2023-10-10T11:20:26.565Z,23.02
2023-10-10T11:22:56.647Z,22.96
2023-10-10T11:25:42.670Z,22.90
2023-10-10T11:28:23.681Z,23.17
2023-10-10T11:30:54.717Z,23.46
2023-10-10T11:33:56.818Z,23.92
2023-10-10T11:36:39.041Z,23.98
2023-10-10T11:39:32.345Z,23.82
2023-10-10T11:42:05.109Z,23.55
2023-10-10T11:44:36.127Z,23.04
2023-10-10T11:47:09.485Z,22.80
2023-10-10T11:49:42.830Z,22.90
2023-10-10T11:52:20.762Z,23.43
2023-10-10T11:54:48.980Z,23.38
2023-10-10T11:57:18.290Z,23.34
2023-10-10T11:59:48.573Z,23.25
2023-10-10T12:02:19.660Z,23.06
2023-10-10T12:04:48.672Z,22.82
2023-10-10T12:07:25.500Z,22.81
2023-10-10T12:09:56.190Z,23.30
2023-10-10T12:12:25.783Z,23.55
2023-10-10T12:15:01.372Z,23.12
2023-10-10T12:17:30.196Z,23.30
2023-10-10T12:19:59.208Z,23.12
2023-10-10T12:22:27.545Z,23.30
2023-10-10T12:24:56.122Z,23.22
2023-10-10T12:27:31.310Z,23.09
2023-10-10T12:30:02.240Z,22.93
2023-10-10T12:32:35.292Z,22.98
2023-10-10T12:35:04.576Z,22.93
2023-10-10T12:37:37.604Z,22.95
2023-10-10T12:40:10.377Z,23.24
2023-10-10T12:42:40.161Z,23.27
2023-10-10T12:45:16.059Z,23.01
2023-10-10T12:47:44.889Z,22.93
2023-10-10T12:50:15.291Z,23.16
2023-10-10T12:52:47.573Z,23.30
2023-10-10T12:55:19.125Z,23.21
2023-10-10T12:57:52.430Z,23.54
2023-10-10T13:00:25.704Z,23.46
2023-10-10T13:02:55.446Z,23.65
2023-10-10T13:05:28.963Z,23.43
2023-10-10T13:08:00.668Z,23.77
2023-10-10T13:10:34.175Z,23.86
2023-10-10T13:13:03.719Z,23.82
2023-10-10T13:15:48.447Z,24.16
2023-10-10T13:18:21.813Z,24.48
2023-10-10T13:20:52.000Z,24.67
2023-10-10T13:23:22.255Z,24.53
2023-10-10T13:25:51.046Z,24.22
2023-10-10T13:28:22.050Z,24.39
2023-10-10T13:30:52.343Z,24.46
2023-10-10T13:33:22.716Z,24.21
2023-10-10T13:35:51.649Z,23.96
2023-10-10T13:38:20.019Z,23.81
2023-10-10T13:40:50.388Z,23.79
2023-10-10T13:43:19.478Z,23.91
2023-10-10T13:45:49.510Z,24.43
2023-10-10T13:48:22.723Z,24.24
2023-10-10T13:50:53.092Z,24.09
2023-10-10T13:53:22.099Z,24.35
2023-10-10T13:55:52.265Z,24.46
2023-10-10T13:58:20.690Z,24.09
2023-10-10T14:00:56.702Z,23.93
2023-10-10T14:03:36.915Z,23.96
2023-10-10T14:06:09.431Z,23.92
2023-10-10T14:08:38.625Z,23.87
2023-10-10T14:11:07.429Z,23.87
2023-10-10T14:13:36.377Z,24.03
2023-10-10T14:16:06.927Z,23.64
2023-10-10T14:18:43.865Z,23.89
2023-10-10T14:21:14.439Z,23.61
2023-10-10T14:23:44.376Z,23.59
2023-10-10T14:26:18.575Z,23.26
2023-10-10T14:28:54.357Z,23.25
2023-10-10T14:31:29.347Z,23.31
2023-10-10T14:34:01.954Z,23.23
2023-10-10T14:36:35.330Z,23.02
2023-10-10T14:39:04.433Z,23.00
2023-10-10T14:41:32.931Z,23.14
2023-10-10T14:44:02.412Z,23.37
2023-10-10T14:46:33.646Z,23.22
2023-10-10T14:49:08.258Z,23.04
2023-10-10T14:51:38.952Z,22.89
2023-10-10T14:54:13.386Z,22.87
2023-10-10T14:56:47.494Z,22.88
2023-10-10T14:59:19.597Z,22.79
2023-10-10T15:01:49.479Z,23.07
2023-10-10T15:04:21.104Z,22.90
2023-10-10T15:06:55.367Z,22.96
2023-10-10T15:09:26.556Z,22.86
2023-10-10T15:12:00.919Z,22.76
2023-10-10T15:14:33.511Z,22.56
2023-10-10T15:17:05.756Z,22.39
2023-10-10T15:19:36.111Z,22.03
2023-10-10T15:22:08.575Z,21.95
2023-10-10T15:24:41.721Z,21.95
2023-10-10T15:27:11.989Z,22.03
2023-10-10T15:29:43.468Z,22.18
2023-10-10T15:32:14.627Z,22.15
2023-10-10T15:34:45.816Z,22.09
2023-10-10T15:37:17.574Z,22.00
2023-10-10T15:39:45.948Z,22.11
2023-10-10T15:42:15.153Z,21.90
2023-10-10T15:44:47.087Z,21.84
2023-10-10T15:47:15.772Z,21.71
2023-10-10T15:49:48.206Z,21.58
2023-10-10T15:52:19.704Z,21.40
2023-10-10T15:54:52.173Z,21.24
2023-10-10T15:57:24.119Z,21.07
2023-10-10T15:59:53.244Z,20.90
2023-10-10T16:02:22.853Z,20.73
2023-10-10T16:04:52.771Z,20.64
2023-10-10T16:07:23.546Z,20.49
2023-10-10T16:09:55.084Z,20.30
2023-10-10T16:12:23.609Z,20.16
2023-10-10T16:14:53.262Z,20.03
2023-10-10T16:17:23.027Z,19.91
2023-10-10T16:19:53.038Z,19.80
2023-10-10T16:22:21.308Z,19.66
2023-10-10T16:24:53.962Z,19.51
2023-10-10T16:27:24.612Z,19.43
2023-10-10T16:29:56.922Z,19.36
2023-10-10T16:32:26.057Z,19.23
2023-10-10T16:34:57.513Z,19.09
2023-10-10T16:37:25.794Z,18.92
2023-10-10T16:39:55.239Z,18.74
2023-10-10T16:42:25.053Z,18.55
2023-10-10T16:44:54.800Z,18.41
2023-10-10T16:47:24.961Z,18.27
2023-10-10T16:49:53.713Z,18.17
2023-10-10T16:52:27.436Z,18.05
2023-10-10T16:54:58.153Z,17.96
2023-10-10T16:57:29.434Z,17.81
2023-10-10T16:59:59.150Z,17.68
2023-10-10T17:02:30.223Z,17.55
2023-10-10T17:05:01.986Z,17.42
2023-10-10T17:07:32.485Z,17.31
2023-10-10T17:10:06.549Z,17.18
2023-10-10T17:12:35.260Z,17.06
2023-10-10T17:15:06.209Z,16.90
2023-10-10T17:17:37.157Z,16.76
2023-10-10T17:20:07.615Z,16.66
2023-10-10T17:22:37.398Z,16.54
2023-10-10T17:25:09.413Z,16.43
2023-10-10T17:27:38.511Z,16.30
2023-10-10T17:30:10.108Z,16.22
2023-10-10T17:32:41.424Z,16.12
2023-10-10T17:35:11.408Z,16.03
2023-10-10T17:37:43.811Z,15.94
2023-10-10T17:40:15.285Z,15.87
2023-10-10T17:42:47.225Z,15.82
2023-10-10T17:45:15.647Z,15.74
2023-10-10T17:47:44.014Z,15.67
2023-10-10T17:50:12.590Z,15.59
2023-10-10T17:52:43.874Z,15.53
2023-10-10T17:55:13.970Z,15.46
2023-10-10T17:57:43.386Z,15.36
2023-10-10T18:00:15.151Z,15.30
2023-10-10T18:02:47.502Z,15.29
2023-10-10T18:05:17.153Z,15.25
2023-10-10T18:07:47.186Z,15.21
2023-10-10T18:10:15.521Z,15.16
2023-10-10T18:12:45.040Z,15.11
2023-10-10T18:15:13.677Z,15.02
2023-10-10T18:17:45.227Z,14.94
2023-10-10T18:20:17.083Z,14.88
2023-10-10T18:22:48.348Z,14.82
2023-10-10T18:25:17.273Z,14.77
2023-10-10T18:27:48.424Z,14.71
2023-10-10T18:30:20.148Z,14.90
2023-10-10T18:32:52.094Z,14.84
2023-10-10T18:35:21.648Z,14.79
2023-10-10T18:37:52.304Z,14.76
2023-10-10T18:40:21.019Z,14.71
2023-10-10T18:42:50.346Z,14.69
2023-10-10T18:45:20.713Z,14.63
2023-10-10T18:47:52.018Z,14.58
2023-10-10T18:50:22.820Z,14.54
2023-10-10T18:52:54.411Z,14.50
2023-10-10T18:55:26.289Z,14.43
2023-10-10T18:57:58.601Z,14.39
2023-10-10T19:00:28.260Z,14.34
2023-10-10T19:02:59.084Z,14.31
2023-10-10T19:05:28.614Z,14.29
2023-10-10T19:08:00.197Z,14.26
2023-10-10T19:10:29.225Z,14.22
2023-10-10T19:12:59.173Z,14.20
2023-10-10T19:15:28.947Z,14.18
2023-10-10T19:18:00.731Z,14.18
2023-10-10T19:20:34.115Z,14.17
2023-10-10T19:23:10.130Z,14.15
2023-10-10T19:25:47.224Z,14.17
2023-10-10T19:28:17.062Z,14.18
2023-10-10T19:30:47.428Z,14.18
2023-10-10T19:33:16.771Z,14.21
2023-10-10T19:35:46.088Z,14.25
2023-10-10T19:38:18.136Z,14.26
2023-10-10T19:40:48.442Z,14.29
2023-10-10T19:43:16.848Z,14.30
2023-10-10T19:45:46.566Z,14.31
2023-10-10T19:48:18.914Z,14.33
2023-10-10T19:50:49.891Z,14.34
2023-10-10T19:53:20.400Z,14.39
2023-10-10T19:55:50.399Z,14.41
2023-10-10T19:58:22.192Z,14.43
2023-10-10T20:00:50.900Z,14.46
2023-10-10T20:03:23.358Z,14.47
2023-10-10T20:05:54.111Z,14.48
2023-10-10T20:08:25.298Z,14.47
2023-10-10T20:10:54.866Z,14.46
2023-10-10T20:13:23.382Z,14.54
2023-10-10T20:15:55.713Z,14.58
2023-10-10T20:18:24.011Z,14.62
2023-10-10T20:20:53.095Z,14.62
2023-10-10T20:23:22.599Z,14.63
2023-10-10T20:25:53.122Z,14.62
2023-10-10T20:28:21.601Z,14.71
2023-10-10T20:30:50.205Z,14.77
2023-10-10T20:33:19.999Z,14.81
2023-10-10T20:35:48.374Z,14.80
2023-10-10T20:38:20.390Z,14.86
2023-10-10T20:40:51.760Z,14.83
2023-10-10T20:43:22.470Z,14.79
2023-10-10T20:45:50.812Z,14.75
2023-10-10T20:48:24.018Z,14.74
2023-10-10T20:50:52.647Z,14.77
2023-10-10T20:53:22.285Z,14.72
2023-10-10T20:55:51.194Z,14.63
2023-10-10T20:58:21.118Z,14.55
2023-10-10T21:00:50.272Z,14.48
2023-10-10T21:03:19.058Z,14.40
2023-10-10T21:05:48.687Z,14.32
2023-10-10T21:08:18.752Z,14.23
2023-10-10T21:10:47.656Z,14.12
2023-10-10T21:13:16.633Z,14.04
2023-10-10T21:15:46.486Z,13.93
2023-10-10T21:18:14.647Z,13.86
2023-10-10T21:21:00.373Z,13.79
2023-10-10T21:23:30.938Z,13.67
2023-10-10T21:25:59.934Z,13.59
2023-10-10T21:28:28.446Z,13.55
2023-10-10T21:30:59.710Z,13.49
2023-10-10T21:33:28.634Z,13.42
2023-10-10T21:35:57.344Z,13.36
2023-10-10T21:38:26.022Z,13.31
2023-10-10T21:41:03.210Z,13.33
2023-10-10T21:43:32.215Z,13.34
2023-10-10T21:46:01.841Z,13.33
2023-10-10T21:48:31.429Z,13.31
2023-10-10T21:51:03.699Z,13.27
2023-10-10T21:53:34.056Z,13.21
2023-10-10T21:56:06.498Z,13.21
2023-10-10T21:58:34.923Z,13.11
2023-10-10T22:01:04.744Z,13.18
2023-10-10T22:03:34.628Z,13.17
2023-10-10T22:06:03.044Z,13.16
2023-10-10T22:08:31.547Z,13.19
2023-10-10T22:11:03.175Z,13.22
2023-10-10T22:13:32.345Z,13.21
2023-10-10T22:16:02.295Z,13.23
2023-10-10T22:18:32.304Z,13.22
2023-10-10T22:21:01.716Z,13.22
2023-10-10T22:23:31.072Z,13.22
2023-10-10T22:26:01.147Z,13.23
2023-10-10T22:28:30.238Z,13.20
2023-10-10T22:31:00.556Z,13.17
2023-10-10T22:33:29.295Z,13.13
2023-10-10T22:36:01.526Z,13.11
2023-10-10T22:38:30.545Z,13.09
2023-10-10T22:40:59.118Z,13.08
2023-10-10T22:43:27.517Z,13.07
2023-10-10T22:45:56.686Z,13.07
2023-10-10T22:48:25.267Z,13.08
2023-10-10T22:50:54.364Z,13.05
2023-10-10T22:53:24.641Z,13.06
2023-10-10T22:55:53.066Z,13.04
2023-10-10T22:58:22.323Z,13.03
2023-10-10T23:00:50.839Z,13.05
2023-10-10T23:03:21.091Z,13.07
2023-10-10T23:05:49.554Z,13.08
2023-10-10T23:08:19.858Z,13.08
2023-10-10T23:10:50.246Z,13.06
2023-10-10T23:13:18.608Z,13.05
2023-10-10T23:15:51.165Z,13.05
2023-10-10T23:18:19.668Z,13.05
2023-10-10T23:20:48.383Z,13.10
2023-10-10T23:23:18.150Z,13.11
2023-10-10T23:25:52.245Z,13.10
2023-10-10T23:28:20.629Z,13.11
2023-10-10T23:30:49.021Z,13.12
2023-10-10T23:33:18.445Z,13.16
2023-10-10T23:35:50.090Z,13.24
2023-10-10T23:38:20.829Z,13.30
2023-10-10T23:40:50.667Z,13.35
2023-10-10T23:43:21.802Z,13.37
2023-10-10T23:45:55.960Z,13.36
2023-10-10T23:48:30.878Z,13.38
2023-10-10T23:51:00.752Z,13.38
2023-10-10T23:53:29.582Z,13.39
2023-10-10T23:56:00.889Z,13.47
2023-10-10T23:58:30.583Z,13.49
